sensor_id;sensor_type;location;lat;lon;timestamp;P1;durP1;ratioP1;P2;durP2;ratioP2
18685;SDS011;9473;52.342;13.110;2022-12-17T00:01:41;76.20;;;25.00;;
18685;SDS011;9473;52.342;13.110;2022-12-17T00:04:26;91.50;;;26.35;;
18685;SDS011;9473;52.342;13.110;2022-12-17T00:07:10;81.28;;;26.33;;
18685;SDS011;9473;52.342;13.110;2022-12-17T00:09:55;78.82;;;24.33;;
18685;SDS011;9473;52.342;13.110;2022-12-17T00:12:41;70.25;;;23.85;;
18685;SDS011;9473;52.342;13.110;2022-12-17T00:15:25;66.90;;;23.33;;
18685;SDS011;9473;52.342;13.110;2022-12-17T00:18:10;72.25;;;23.48;;
18685;SDS011;9473;52.342;13.110;2022-12-17T00:20:55;66.50;;;24.10;;
18685;SDS011;9473;52.342;13.110;2022-12-17T00:23:40;77.15;;;25.45;;
18685;SDS011;9473;52.342;13.110;2022-12-17T00:26:25;71.75;;;24.92;;
18685;SDS011;9473;52.342;13.110;2022-12-17T00:29:11;84.63;;;25.48;;
18685;SDS011;9473;52.342;13.110;2022-12-17T00:31:56;82.03;;;24.30;;
18685;SDS011;9473;52.342;13.110;2022-12-17T00:34:46;77.80;;;23.73;;
18685;SDS011;9473;52.342;13.110;2022-12-17T00:37:31;78.03;;;24.75;;
18685;SDS011;9473;52.342;13.110;2022-12-17T00:40:15;81.88;;;24.70;;
18685;SDS011;9473;52.342;13.110;2022-12-17T00:43:00;79.07;;;24.70;;
18685;SDS011;9473;52.342;13.110;2022-12-17T00:45:47;76.82;;;24.27;;
18685;SDS011;9473;52.342;13.110;2022-12-17T00:48:31;77.75;;;23.48;;
18685;SDS011;9473;52.342;13.110;2022-12-17T00:51:16;76.47;;;23.85;;
18685;SDS011;9473;52.342;13.110;2022-12-17T00:54:01;70.57;;;23.48;;
18685;SDS011;9473;52.342;13.110;2022-12-17T00:56:45;80.38;;;23.90;;
18685;SDS011;9473;52.342;13.110;2022-12-17T00:59:30;76.43;;;23.02;;
18685;SDS011;9473;52.342;13.110;2022-12-17T01:02:15;69.75;;;21.02;;
18685;SDS011;9473;52.342;13.110;2022-12-17T01:05:00;79.80;;;22.58;;
18685;SDS011;9473;52.342;13.110;2022-12-17T01:07:45;75.25;;;22.67;;
18685;SDS011;9473;52.342;13.110;2022-12-17T01:10:29;71.03;;;20.23;;
18685;SDS011;9473;52.342;13.110;2022-12-17T01:13:14;69.70;;;18.48;;
18685;SDS011;9473;52.342;13.110;2022-12-17T01:16:02;49.08;;;17.17;;
18685;SDS011;9473;52.342;13.110;2022-12-17T01:18:48;53.85;;;15.98;;
18685;SDS011;9473;52.342;13.110;2022-12-17T01:21:33;52.28;;;16.77;;
18685;SDS011;9473;52.342;13.110;2022-12-17T01:24:18;55.03;;;17.00;;
18685;SDS011;9473;52.342;13.110;2022-12-17T01:27:02;45.83;;;15.18;;
18685;SDS011;9473;52.342;13.110;2022-12-17T01:29:47;57.78;;;15.70;;
18685;SDS011;9473;52.342;13.110;2022-12-17T01:32:31;49.47;;;15.63;;
18685;SDS011;9473;52.342;13.110;2022-12-17T01:35:17;50.85;;;15.10;;
18685;SDS011;9473;52.342;13.110;2022-12-17T01:38:02;42.45;;;13.90;;
18685;SDS011;9473;52.342;13.110;2022-12-17T01:40:49;50.05;;;15.95;;
18685;SDS011;9473;52.342;13.110;2022-12-17T01:43:36;49.67;;;15.40;;
18685;SDS011;9473;52.342;13.110;2022-12-17T01:46:21;55.67;;;16.38;;
18685;SDS011;9473;52.342;13.110;2022-12-17T01:49:06;62.30;;;16.98;;
18685;SDS011;9473;52.342;13.110;2022-12-17T01:51:53;51.97;;;15.32;;
18685;SDS011;9473;52.342;13.110;2022-12-17T01:54:34;53.15;;;14.85;;
18685;SDS011;9473;52.342;13.110;2022-12-17T01:57:19;51.40;;;15.75;;
18685;SDS011;9473;52.342;13.110;2022-12-17T02:00:05;51.78;;;14.95;;
18685;SDS011;9473;52.342;13.110;2022-12-17T02:02:50;56.13;;;14.45;;
18685;SDS011;9473;52.342;13.110;2022-12-17T02:05:37;47.30;;;14.52;;
18685;SDS011;9473;52.342;13.110;2022-12-17T02:08:27;52.72;;;14.73;;
18685;SDS011;9473;52.342;13.110;2022-12-17T02:11:15;51.95;;;14.43;;
18685;SDS011;9473;52.342;13.110;2022-12-17T02:14:03;51.53;;;13.90;;
18685;SDS011;9473;52.342;13.110;2022-12-17T02:16:49;47.58;;;14.10;;
18685;SDS011;9473;52.342;13.110;2022-12-17T02:19:40;45.83;;;12.20;;
18685;SDS011;9473;52.342;13.110;2022-12-17T02:22:26;50.22;;;14.48;;
18685;SDS011;9473;52.342;13.110;2022-12-17T02:25:17;50.58;;;16.33;;
18685;SDS011;9473;52.342;13.110;2022-12-17T02:28:06;49.95;;;14.65;;
18685;SDS011;9473;52.342;13.110;2022-12-17T02:30:51;41.47;;;13.57;;
18685;SDS011;9473;52.342;13.110;2022-12-17T02:33:36;37.78;;;12.23;;
18685;SDS011;9473;52.342;13.110;2022-12-17T02:36:21;34.50;;;10.10;;
18685;SDS011;9473;52.342;13.110;2022-12-17T02:39:05;30.35;;;10.02;;
18685;SDS011;9473;52.342;13.110;2022-12-17T02:41:50;31.30;;;10.35;;
18685;SDS011;9473;52.342;13.110;2022-12-17T02:44:38;27.00;;;9.90;;
18685;SDS011;9473;52.342;13.110;2022-12-17T02:47:23;30.00;;;9.40;;
18685;SDS011;9473;52.342;13.110;2022-12-17T02:50:09;31.35;;;10.02;;
18685;SDS011;9473;52.342;13.110;2022-12-17T02:52:54;30.15;;;8.55;;
18685;SDS011;9473;52.342;13.110;2022-12-17T02:55:39;26.27;;;9.13;;
18685;SDS011;9473;52.342;13.110;2022-12-17T02:58:23;30.70;;;9.15;;
18685;SDS011;9473;52.342;13.110;2022-12-17T03:01:09;27.98;;;8.52;;
18685;SDS011;9473;52.342;13.110;2022-12-17T03:03:54;22.55;;;8.40;;
18685;SDS011;9473;52.342;13.110;2022-12-17T03:06:38;27.50;;;9.35;;
18685;SDS011;9473;52.342;13.110;2022-12-17T03:09:22;27.42;;;8.48;;
18685;SDS011;9473;52.342;13.110;2022-12-17T03:12:07;29.17;;;8.18;;
18685;SDS011;9473;52.342;13.110;2022-12-17T03:14:52;27.08;;;8.45;;
18685;SDS011;9473;52.342;13.110;2022-12-17T03:17:38;23.65;;;8.18;;
18685;SDS011;9473;52.342;13.110;2022-12-17T03:20:23;24.05;;;7.18;;
18685;SDS011;9473;52.342;13.110;2022-12-17T03:23:08;20.70;;;7.32;;
18685;SDS011;9473;52.342;13.110;2022-12-17T03:25:53;20.17;;;6.07;;
18685;SDS011;9473;52.342;13.110;2022-12-17T03:28:41;28.15;;;7.85;;
18685;SDS011;9473;52.342;13.110;2022-12-17T03:31:25;19.92;;;6.88;;
18685;SDS011;9473;52.342;13.110;2022-12-17T03:34:11;22.42;;;6.85;;
18685;SDS011;9473;52.342;13.110;2022-12-17T03:36:55;24.92;;;7.28;;
18685;SDS011;9473;52.342;13.110;2022-12-17T03:39:45;20.20;;;6.90;;
18685;SDS011;9473;52.342;13.110;2022-12-17T03:42:30;20.75;;;7.45;;
18685;SDS011;9473;52.342;13.110;2022-12-17T03:45:15;22.70;;;7.25;;
18685;SDS011;9473;52.342;13.110;2022-12-17T03:48:04;18.52;;;6.45;;
18685;SDS011;9473;52.342;13.110;2022-12-17T03:50:50;24.65;;;7.28;;
18685;SDS011;9473;52.342;13.110;2022-12-17T03:53:35;26.87;;;7.20;;
18685;SDS011;9473;52.342;13.110;2022-12-17T03:56:19;21.42;;;7.30;;
18685;SDS011;9473;52.342;13.110;2022-12-17T03:59:04;24.52;;;7.10;;
18685;SDS011;9473;52.342;13.110;2022-12-17T04:01:48;24.27;;;6.47;;
18685;SDS011;9473;52.342;13.110;2022-12-17T04:04:33;26.30;;;8.10;;
18685;SDS011;9473;52.342;13.110;2022-12-17T04:07:18;26.05;;;8.07;;
18685;SDS011;9473;52.342;13.110;2022-12-17T04:10:03;29.48;;;7.20;;
18685;SDS011;9473;52.342;13.110;2022-12-17T04:12:48;23.90;;;7.72;;
18685;SDS011;9473;52.342;13.110;2022-12-17T04:15:33;23.45;;;7.03;;
18685;SDS011;9473;52.342;13.110;2022-12-17T04:18:18;18.52;;;6.68;;
18685;SDS011;9473;52.342;13.110;2022-12-17T04:21:03;24.40;;;6.72;;
18685;SDS011;9473;52.342;13.110;2022-12-17T04:23:49;22.67;;;6.88;;
18685;SDS011;9473;52.342;13.110;2022-12-17T04:26:33;26.20;;;7.28;;
18685;SDS011;9473;52.342;13.110;2022-12-17T04:29:18;26.45;;;7.18;;
18685;SDS011;9473;52.342;13.110;2022-12-17T04:32:02;32.20;;;7.22;;
18685;SDS011;9473;52.342;13.110;2022-12-17T04:34:47;29.98;;;7.60;;
18685;SDS011;9473;52.342;13.110;2022-12-17T04:37:32;22.27;;;6.53;;
18685;SDS011;9473;52.342;13.110;2022-12-17T04:40:20;26.05;;;7.25;;
18685;SDS011;9473;52.342;13.110;2022-12-17T04:43:05;24.27;;;6.90;;
18685;SDS011;9473;52.342;13.110;2022-12-17T04:45:50;24.30;;;6.68;;
18685;SDS011;9473;52.342;13.110;2022-12-17T04:48:34;27.85;;;7.85;;
18685;SDS011;9473;52.342;13.110;2022-12-17T04:51:19;29.98;;;7.57;;
18685;SDS011;9473;52.342;13.110;2022-12-17T04:54:03;22.65;;;6.30;;
18685;SDS011;9473;52.342;13.110;2022-12-17T04:56:49;27.58;;;7.32;;
18685;SDS011;9473;52.342;13.110;2022-12-17T04:59:34;23.73;;;7.40;;
18685;SDS011;9473;52.342;13.110;2022-12-17T05:02:19;21.48;;;6.93;;
18685;SDS011;9473;52.342;13.110;2022-12-17T05:05:04;27.30;;;8.20;;
18685;SDS011;9473;52.342;13.110;2022-12-17T05:07:54;26.63;;;7.72;;
18685;SDS011;9473;52.342;13.110;2022-12-17T05:10:39;28.08;;;7.78;;
18685;SDS011;9473;52.342;13.110;2022-12-17T05:13:25;23.88;;;6.18;;
18685;SDS011;9473;52.342;13.110;2022-12-17T05:16:10;29.80;;;7.03;;
18685;SDS011;9473;52.342;13.110;2022-12-17T05:18:55;26.52;;;7.40;;
18685;SDS011;9473;52.342;13.110;2022-12-17T05:21:45;23.98;;;7.00;;
18685;SDS011;9473;52.342;13.110;2022-12-17T05:24:30;26.40;;;8.07;;
18685;SDS011;9473;52.342;13.110;2022-12-17T05:27:14;32.83;;;8.30;;
18685;SDS011;9473;52.342;13.110;2022-12-17T05:30:00;35.53;;;8.00;;
18685;SDS011;9473;52.342;13.110;2022-12-17T05:32:45;26.15;;;7.47;;
18685;SDS011;9473;52.342;13.110;2022-12-17T05:35:29;27.10;;;6.68;;
18685;SDS011;9473;52.342;13.110;2022-12-17T05:38:14;14.23;;;4.93;;
18685;SDS011;9473;52.342;13.110;2022-12-17T05:40:58;24.65;;;7.50;;
18685;SDS011;9473;52.342;13.110;2022-12-17T05:43:43;24.58;;;7.78;;
18685;SDS011;9473;52.342;13.110;2022-12-17T05:46:29;28.52;;;7.55;;
18685;SDS011;9473;52.342;13.110;2022-12-17T05:49:14;30.50;;;7.82;;
18685;SDS011;9473;52.342;13.110;2022-12-17T05:52:01;29.23;;;7.03;;
18685;SDS011;9473;52.342;13.110;2022-12-17T05:54:46;20.02;;;5.93;;
18685;SDS011;9473;52.342;13.110;2022-12-17T05:57:30;24.08;;;6.97;;
18685;SDS011;9473;52.342;13.110;2022-12-17T06:00:15;30.92;;;8.20;;
18685;SDS011;9473;52.342;13.110;2022-12-17T06:03:03;27.73;;;7.32;;
18685;SDS011;9473;52.342;13.110;2022-12-17T06:05:52;26.60;;;6.00;;
18685;SDS011;9473;52.342;13.110;2022-12-17T06:08:36;27.90;;;7.20;;
18685;SDS011;9473;52.342;13.110;2022-12-17T06:11:21;26.23;;;7.05;;
18685;SDS011;9473;52.342;13.110;2022-12-17T06:14:06;22.75;;;7.20;;
18685;SDS011;9473;52.342;13.110;2022-12-17T06:16:49;27.95;;;7.10;;
18685;SDS011;9473;52.342;13.110;2022-12-17T06:19:35;26.92;;;6.88;;
18685;SDS011;9473;52.342;13.110;2022-12-17T06:22:20;25.25;;;7.53;;
18685;SDS011;9473;52.342;13.110;2022-12-17T06:25:04;22.65;;;6.80;;
18685;SDS011;9473;52.342;13.110;2022-12-17T06:27:55;21.70;;;6.93;;
18685;SDS011;9473;52.342;13.110;2022-12-17T06:30:40;23.42;;;7.72;;
18685;SDS011;9473;52.342;13.110;2022-12-17T06:33:25;21.17;;;6.47;;
18685;SDS011;9473;52.342;13.110;2022-12-17T06:36:11;22.38;;;5.90;;
18685;SDS011;9473;52.342;13.110;2022-12-17T06:38:55;20.63;;;6.47;;
18685;SDS011;9473;52.342;13.110;2022-12-17T06:41:40;19.17;;;6.70;;
18685;SDS011;9473;52.342;13.110;2022-12-17T06:44:24;28.02;;;7.63;;
18685;SDS011;9473;52.342;13.110;2022-12-17T06:47:09;12.52;;;3.67;;
18685;SDS011;9473;52.342;13.110;2022-12-17T06:49:53;14.65;;;4.05;;
18685;SDS011;9473;52.342;13.110;2022-12-17T06:52:44;32.25;;;7.80;;
18685;SDS011;9473;52.342;13.110;2022-12-17T06:55:35;22.45;;;6.03;;
18685;SDS011;9473;52.342;13.110;2022-12-17T06:58:19;25.50;;;7.55;;
18685;SDS011;9473;52.342;13.110;2022-12-17T07:01:04;17.52;;;5.80;;
18685;SDS011;9473;52.342;13.110;2022-12-17T07:03:49;20.38;;;6.35;;
18685;SDS011;9473;52.342;13.110;2022-12-17T07:06:33;23.98;;;7.00;;
18685;SDS011;9473;52.342;13.110;2022-12-17T07:09:19;21.77;;;6.28;;
18685;SDS011;9473;52.342;13.110;2022-12-17T07:12:04;15.18;;;5.43;;
18685;SDS011;9473;52.342;13.110;2022-12-17T07:14:49;24.58;;;7.40;;
18685;SDS011;9473;52.342;13.110;2022-12-17T07:17:33;26.35;;;8.73;;
18685;SDS011;9473;52.342;13.110;2022-12-17T07:20:18;30.58;;;8.70;;
18685;SDS011;9473;52.342;13.110;2022-12-17T07:23:03;28.77;;;8.60;;
18685;SDS011;9473;52.342;13.110;2022-12-17T07:25:49;32.50;;;8.10;;
18685;SDS011;9473;52.342;13.110;2022-12-17T07:28:44;33.90;;;9.07;;
18685;SDS011;9473;52.342;13.110;2022-12-17T07:31:29;35.35;;;10.38;;
18685;SDS011;9473;52.342;13.110;2022-12-17T07:34:25;34.60;;;9.07;;
18685;SDS011;9473;52.342;13.110;2022-12-17T07:37:10;33.83;;;9.88;;
18685;SDS011;9473;52.342;13.110;2022-12-17T07:40:03;33.55;;;9.40;;
18685;SDS011;9473;52.342;13.110;2022-12-17T07:42:49;30.13;;;9.10;;
18685;SDS011;9473;52.342;13.110;2022-12-17T07:45:34;33.63;;;9.55;;
18685;SDS011;9473;52.342;13.110;2022-12-17T07:48:18;29.55;;;9.68;;
18685;SDS011;9473;52.342;13.110;2022-12-17T07:51:03;29.25;;;9.32;;
18685;SDS011;9473;52.342;13.110;2022-12-17T07:53:47;36.35;;;10.52;;
18685;SDS011;9473;52.342;13.110;2022-12-17T07:56:32;27.42;;;10.13;;
18685;SDS011;9473;52.342;13.110;2022-12-17T07:59:18;34.97;;;10.00;;
18685;SDS011;9473;52.342;13.110;2022-12-17T08:02:03;29.77;;;10.40;;
18685;SDS011;9473;52.342;13.110;2022-12-17T08:04:47;29.73;;;9.50;;
18685;SDS011;9473;52.342;13.110;2022-12-17T08:07:32;30.60;;;8.82;;
18685;SDS011;9473;52.342;13.110;2022-12-17T08:10:16;35.17;;;9.55;;
18685;SDS011;9473;52.342;13.110;2022-12-17T08:13:01;29.08;;;9.45;;
18685;SDS011;9473;52.342;13.110;2022-12-17T08:15:52;31.63;;;9.20;;
18685;SDS011;9473;52.342;13.110;2022-12-17T08:18:37;31.00;;;10.00;;
18685;SDS011;9473;52.342;13.110;2022-12-17T08:21:22;32.92;;;10.82;;
18685;SDS011;9473;52.342;13.110;2022-12-17T08:24:07;40.17;;;12.50;;
18685;SDS011;9473;52.342;13.110;2022-12-17T08:26:51;38.22;;;10.82;;
18685;SDS011;9473;52.342;13.110;2022-12-17T08:29:36;35.83;;;10.10;;
18685;SDS011;9473;52.342;13.110;2022-12-17T08:32:22;32.20;;;10.30;;
18685;SDS011;9473;52.342;13.110;2022-12-17T08:35:06;38.53;;;10.90;;
18685;SDS011;9473;52.342;13.110;2022-12-17T08:37:51;29.83;;;9.93;;
18685;SDS011;9473;52.342;13.110;2022-12-17T08:40:36;28.17;;;9.07;;
18685;SDS011;9473;52.342;13.110;2022-12-17T08:43:20;33.50;;;10.48;;
18685;SDS011;9473;52.342;13.110;2022-12-17T08:46:05;31.67;;;8.70;;
18685;SDS011;9473;52.342;13.110;2022-12-17T08:48:51;33.60;;;9.80;;
18685;SDS011;9473;52.342;13.110;2022-12-17T08:51:41;30.70;;;9.05;;
18685;SDS011;9473;52.342;13.110;2022-12-17T08:54:25;35.45;;;10.65;;
18685;SDS011;9473;52.342;13.110;2022-12-17T08:57:10;30.50;;;10.40;;
18685;SDS011;9473;52.342;13.110;2022-12-17T08:59:54;40.00;;;12.55;;
18685;SDS011;9473;52.342;13.110;2022-12-17T09:02:39;33.55;;;11.07;;
18685;SDS011;9473;52.342;13.110;2022-12-17T09:05:25;36.40;;;11.07;;
18685;SDS011;9473;52.342;13.110;2022-12-17T09:08:10;32.20;;;11.48;;
18685;SDS011;9473;52.342;13.110;2022-12-17T09:10:54;35.30;;;11.88;;
18685;SDS011;9473;52.342;13.110;2022-12-17T09:13:39;34.78;;;11.52;;
18685;SDS011;9473;52.342;13.110;2022-12-17T09:16:23;36.17;;;11.30;;
18685;SDS011;9473;52.342;13.110;2022-12-17T09:19:08;33.90;;;10.80;;
18685;SDS011;9473;52.342;13.110;2022-12-17T09:21:54;33.40;;;11.65;;
18685;SDS011;9473;52.342;13.110;2022-12-17T09:24:39;32.40;;;10.20;;
18685;SDS011;9473;52.342;13.110;2022-12-17T09:27:24;34.10;;;10.18;;
18685;SDS011;9473;52.342;13.110;2022-12-17T09:30:08;35.42;;;10.85;;
18685;SDS011;9473;52.342;13.110;2022-12-17T09:32:53;24.15;;;8.82;;
18685;SDS011;9473;52.342;13.110;2022-12-17T09:35:38;41.75;;;11.27;;
18685;SDS011;9473;52.342;13.110;2022-12-17T09:38:24;37.05;;;10.70;;
18685;SDS011;9473;52.342;13.110;2022-12-17T09:41:12;30.73;;;9.82;;
18685;SDS011;9473;52.342;13.110;2022-12-17T09:44:00;33.13;;;10.23;;
18685;SDS011;9473;52.342;13.110;2022-12-17T09:46:48;32.28;;;9.90;;
18685;SDS011;9473;52.342;13.110;2022-12-17T09:49:35;31.75;;;10.85;;
18685;SDS011;9473;52.342;13.110;2022-12-17T09:52:21;36.55;;;12.20;;
18685;SDS011;9473;52.342;13.110;2022-12-17T09:55:14;40.60;;;11.98;;
18685;SDS011;9473;52.342;13.110;2022-12-17T09:57:59;25.95;;;8.18;;
18685;SDS011;9473;52.342;13.110;2022-12-17T10:00:44;34.65;;;10.45;;
18685;SDS011;9473;52.342;13.110;2022-12-17T10:03:28;39.08;;;12.07;;
18685;SDS011;9473;52.342;13.110;2022-12-17T10:06:15;30.83;;;10.23;;
18685;SDS011;9473;52.342;13.110;2022-12-17T10:09:05;31.83;;;9.77;;
18685;SDS011;9473;52.342;13.110;2022-12-17T10:11:51;41.63;;;12.75;;
18685;SDS011;9473;52.342;13.110;2022-12-17T10:14:36;33.67;;;10.90;;
18685;SDS011;9473;52.342;13.110;2022-12-17T10:17:22;33.40;;;9.63;;
18685;SDS011;9473;52.342;13.110;2022-12-17T10:20:13;41.67;;;14.02;;
18685;SDS011;9473;52.342;13.110;2022-12-17T10:23:00;30.10;;;9.20;;
18685;SDS011;9473;52.342;13.110;2022-12-17T10:25:49;37.35;;;10.10;;
18685;SDS011;9473;52.342;13.110;2022-12-17T10:28:35;34.50;;;11.77;;
18685;SDS011;9473;52.342;13.110;2022-12-17T10:31:20;44.58;;;15.93;;
18685;SDS011;9473;52.342;13.110;2022-12-17T10:34:05;33.33;;;12.88;;
18685;SDS011;9473;52.342;13.110;2022-12-17T10:36:50;35.15;;;11.13;;
18685;SDS011;9473;52.342;13.110;2022-12-17T10:39:36;32.83;;;10.50;;
18685;SDS011;9473;52.342;13.110;2022-12-17T10:42:25;37.85;;;11.05;;
18685;SDS011;9473;52.342;13.110;2022-12-17T10:45:19;34.50;;;11.27;;
18685;SDS011;9473;52.342;13.110;2022-12-17T10:48:14;33.13;;;10.00;;
18685;SDS011;9473;52.342;13.110;2022-12-17T10:51:00;39.85;;;11.95;;
18685;SDS011;9473;52.342;13.110;2022-12-17T10:53:47;38.75;;;12.48;;
18685;SDS011;9473;52.342;13.110;2022-12-17T10:56:32;33.45;;;11.57;;
18685;SDS011;9473;52.342;13.110;2022-12-17T10:59:23;49.15;;;13.07;;
18685;SDS011;9473;52.342;13.110;2022-12-17T11:02:15;42.83;;;12.30;;
18685;SDS011;9473;52.342;13.110;2022-12-17T11:05:01;40.85;;;12.35;;
18685;SDS011;9473;52.342;13.110;2022-12-17T11:07:46;41.20;;;11.52;;
18685;SDS011;9473;52.342;13.110;2022-12-17T11:10:31;34.95;;;10.50;;
18685;SDS011;9473;52.342;13.110;2022-12-17T11:13:23;33.17;;;11.30;;
18685;SDS011;9473;52.342;13.110;2022-12-17T11:16:12;36.75;;;11.82;;
18685;SDS011;9473;52.342;13.110;2022-12-17T11:19:13;37.58;;;10.80;;
18685;SDS011;9473;52.342;13.110;2022-12-17T11:22:00;37.33;;;11.45;;
18685;SDS011;9473;52.342;13.110;2022-12-17T11:24:45;30.42;;;10.25;;
18685;SDS011;9473;52.342;13.110;2022-12-17T11:27:30;33.88;;;10.45;;
18685;SDS011;9473;52.342;13.110;2022-12-17T11:30:16;35.05;;;10.52;;
18685;SDS011;9473;52.342;13.110;2022-12-17T11:33:03;23.15;;;7.90;;
18685;SDS011;9473;52.342;13.110;2022-12-17T11:35:53;31.60;;;9.95;;
18685;SDS011;9473;52.342;13.110;2022-12-17T11:38:43;33.05;;;9.90;;
18685;SDS011;9473;52.342;13.110;2022-12-17T11:41:33;30.23;;;9.98;;
18685;SDS011;9473;52.342;13.110;2022-12-17T11:44:24;30.58;;;10.27;;
18685;SDS011;9473;52.342;13.110;2022-12-17T11:47:13;35.33;;;10.77;;
18685;SDS011;9473;52.342;13.110;2022-12-17T11:50:03;37.83;;;11.07;;
18685;SDS011;9473;52.342;13.110;2022-12-17T11:52:54;27.30;;;8.82;;
18685;SDS011;9473;52.342;13.110;2022-12-17T11:55:41;39.42;;;9.68;;
18685;SDS011;9473;52.342;13.110;2022-12-17T11:58:26;47.38;;;11.73;;
18685;SDS011;9473;52.342;13.110;2022-12-17T12:01:13;39.08;;;11.82;;
18685;SDS011;9473;52.342;13.110;2022-12-17T12:04:03;37.75;;;10.18;;
18685;SDS011;9473;52.342;13.110;2022-12-17T12:06:53;32.33;;;9.93;;
18685;SDS011;9473;52.342;13.110;2022-12-17T12:09:42;30.30;;;9.15;;
18685;SDS011;9473;52.342;13.110;2022-12-17T12:12:33;37.22;;;11.40;;
18685;SDS011;9473;52.342;13.110;2022-12-17T12:15:23;31.50;;;9.60;;
18685;SDS011;9473;52.342;13.110;2022-12-17T12:18:09;31.60;;;10.38;;
18685;SDS011;9473;52.342;13.110;2022-12-17T12:21:09;33.42;;;10.48;;
18685;SDS011;9473;52.342;13.110;2022-12-17T12:24:00;38.22;;;11.30;;
18685;SDS011;9473;52.342;13.110;2022-12-17T12:26:50;33.13;;;11.60;;
18685;SDS011;9473;52.342;13.110;2022-12-17T12:29:38;33.13;;;11.05;;
18685;SDS011;9473;52.342;13.110;2022-12-17T12:32:34;34.17;;;10.90;;
18685;SDS011;9473;52.342;13.110;2022-12-17T12:35:22;33.35;;;10.25;;
18685;SDS011;9473;52.342;13.110;2022-12-17T12:38:09;32.20;;;10.55;;
18685;SDS011;9473;52.342;13.110;2022-12-17T12:40:59;38.92;;;10.80;;
18685;SDS011;9473;52.342;13.110;2022-12-17T12:43:49;26.10;;;7.28;;
18685;SDS011;9473;52.342;13.110;2022-12-17T12:46:46;28.40;;;7.75;;
18685;SDS011;9473;52.342;13.110;2022-12-17T12:49:36;32.38;;;9.57;;
18685;SDS011;9473;52.342;13.110;2022-12-17T12:52:24;34.17;;;10.38;;
18685;SDS011;9473;52.342;13.110;2022-12-17T12:55:10;42.17;;;11.77;;
18685;SDS011;9473;52.342;13.110;2022-12-17T12:57:55;35.75;;;11.27;;
18685;SDS011;9473;52.342;13.110;2022-12-17T13:00:53;37.78;;;11.73;;
18685;SDS011;9473;52.342;13.110;2022-12-17T13:03:39;36.13;;;10.60;;
18685;SDS011;9473;52.342;13.110;2022-12-17T13:06:40;38.30;;;11.63;;
18685;SDS011;9473;52.342;13.110;2022-12-17T13:09:20;41.28;;;10.32;;
18685;SDS011;9473;52.342;13.110;2022-12-17T13:11:52;28.88;;;8.43;;
18685;SDS011;9473;52.342;13.110;2022-12-17T13:14:22;30.83;;;9.55;;
18685;SDS011;9473;52.342;13.110;2022-12-17T13:16:52;41.90;;;12.02;;
18685;SDS011;9473;52.342;13.110;2022-12-17T13:19:36;41.53;;;11.75;;
18685;SDS011;9473;52.342;13.110;2022-12-17T13:22:11;41.28;;;11.73;;
18685;SDS011;9473;52.342;13.110;2022-12-17T13:24:50;40.78;;;11.60;;
18685;SDS011;9473;52.342;13.110;2022-12-17T13:27:27;38.10;;;10.57;;
18685;SDS011;9473;52.342;13.110;2022-12-17T13:29:54;41.70;;;11.48;;
18685;SDS011;9473;52.342;13.110;2022-12-17T13:32:24;39.25;;;11.48;;
18685;SDS011;9473;52.342;13.110;2022-12-17T13:34:58;47.78;;;12.52;;
18685;SDS011;9473;52.342;13.110;2022-12-17T13:37:30;39.33;;;11.55;;
18685;SDS011;9473;52.342;13.110;2022-12-17T13:40:02;44.25;;;11.80;;
18685;SDS011;9473;52.342;13.110;2022-12-17T13:42:36;38.67;;;10.57;;
18685;SDS011;9473;52.342;13.110;2022-12-17T13:45:04;40.38;;;11.07;;
18685;SDS011;9473;52.342;13.110;2022-12-17T13:47:33;40.60;;;10.77;;
18685;SDS011;9473;52.342;13.110;2022-12-17T13:50:02;44.28;;;11.25;;
18685;SDS011;9473;52.342;13.110;2022-12-17T13:52:40;32.67;;;11.05;;
18685;SDS011;9473;52.342;13.110;2022-12-17T13:55:08;53.45;;;12.88;;
18685;SDS011;9473;52.342;13.110;2022-12-17T13:57:36;39.15;;;11.55;;
18685;SDS011;9473;52.342;13.110;2022-12-17T14:00:03;41.25;;;12.05;;
18685;SDS011;9473;52.342;13.110;2022-12-17T14:02:33;41.72;;;12.15;;
18685;SDS011;9473;52.342;13.110;2022-12-17T14:05:01;42.90;;;12.48;;
18685;SDS011;9473;52.342;13.110;2022-12-17T14:07:29;40.03;;;10.48;;
18685;SDS011;9473;52.342;13.110;2022-12-17T14:09:59;42.20;;;11.88;;
18685;SDS011;9473;52.342;13.110;2022-12-17T14:12:26;38.17;;;10.20;;
18685;SDS011;9473;52.342;13.110;2022-12-17T14:14:54;38.13;;;11.43;;
18685;SDS011;9473;52.342;13.110;2022-12-17T14:17:22;32.30;;;9.95;;
18685;SDS011;9473;52.342;13.110;2022-12-17T14:19:52;36.92;;;11.55;;
18685;SDS011;9473;52.342;13.110;2022-12-17T14:22:23;31.40;;;9.27;;
18685;SDS011;9473;52.342;13.110;2022-12-17T14:24:52;36.00;;;11.60;;
18685;SDS011;9473;52.342;13.110;2022-12-17T14:27:21;37.90;;;10.88;;
18685;SDS011;9473;52.342;13.110;2022-12-17T14:29:48;33.17;;;11.60;;
18685;SDS011;9473;52.342;13.110;2022-12-17T14:32:21;35.28;;;11.05;;
18685;SDS011;9473;52.342;13.110;2022-12-17T14:34:48;40.03;;;10.88;;
18685;SDS011;9473;52.342;13.110;2022-12-17T14:37:17;44.20;;;12.00;;
18685;SDS011;9473;52.342;13.110;2022-12-17T14:39:45;40.35;;;11.07;;
18685;SDS011;9473;52.342;13.110;2022-12-17T14:42:13;41.63;;;11.60;;
18685;SDS011;9473;52.342;13.110;2022-12-17T14:44:51;21.83;;;7.65;;
18685;SDS011;9473;52.342;13.110;2022-12-17T14:47:19;40.47;;;11.85;;
18685;SDS011;9473;52.342;13.110;2022-12-17T14:49:54;24.10;;;7.82;;
18685;SDS011;9473;52.342;13.110;2022-12-17T14:52:29;33.63;;;9.65;;
18685;SDS011;9473;52.342;13.110;2022-12-17T14:54:56;34.35;;;10.98;;
18685;SDS011;9473;52.342;13.110;2022-12-17T14:57:23;35.30;;;10.65;;
18685;SDS011;9473;52.342;13.110;2022-12-17T14:59:50;33.53;;;10.70;;
18685;SDS011;9473;52.342;13.110;2022-12-17T15:02:18;40.03;;;11.20;;
18685;SDS011;9473;52.342;13.110;2022-12-17T15:04:47;47.88;;;11.93;;
18685;SDS011;9473;52.342;13.110;2022-12-17T15:07:16;33.03;;;9.63;;
18685;SDS011;9473;52.342;13.110;2022-12-17T15:09:45;44.42;;;13.15;;
18685;SDS011;9473;52.342;13.110;2022-12-17T15:12:12;35.33;;;12.25;;
18685;SDS011;9473;52.342;13.110;2022-12-17T15:14:39;42.25;;;11.68;;
18685;SDS011;9473;52.342;13.110;2022-12-17T15:17:06;43.30;;;12.45;;
18685;SDS011;9473;52.342;13.110;2022-12-17T15:19:33;36.28;;;12.25;;
18685;SDS011;9473;52.342;13.110;2022-12-17T15:22:00;39.63;;;11.85;;
18685;SDS011;9473;52.342;13.110;2022-12-17T15:24:28;31.20;;;9.45;;
18685;SDS011;9473;52.342;13.110;2022-12-17T15:26:57;40.08;;;11.45;;
18685;SDS011;9473;52.342;13.110;2022-12-17T15:29:23;44.30;;;12.18;;
18685;SDS011;9473;52.342;13.110;2022-12-17T15:31:50;34.83;;;11.65;;
18685;SDS011;9473;52.342;13.110;2022-12-17T15:34:17;35.78;;;11.45;;
18685;SDS011;9473;52.342;13.110;2022-12-17T15:36:44;23.98;;;8.35;;
18685;SDS011;9473;52.342;13.110;2022-12-17T15:39:11;41.30;;;11.48;;
18685;SDS011;9473;52.342;13.110;2022-12-17T15:41:41;36.20;;;10.25;;
18685;SDS011;9473;52.342;13.110;2022-12-17T15:44:27;22.15;;;7.60;;
18685;SDS011;9473;52.342;13.110;2022-12-17T15:46:54;37.40;;;11.77;;
18685;SDS011;9473;52.342;13.110;2022-12-17T15:49:21;35.40;;;11.48;;
18685;SDS011;9473;52.342;13.110;2022-12-17T15:51:48;42.97;;;11.70;;
18685;SDS011;9473;52.342;13.110;2022-12-17T15:54:14;41.95;;;12.05;;
18685;SDS011;9473;52.342;13.110;2022-12-17T15:56:41;42.78;;;12.95;;
18685;SDS011;9473;52.342;13.110;2022-12-17T15:59:08;40.75;;;12.20;;